Time;durP1;ratioP1;P1;durP2;ratioP2;P2;SDS_P1;SDS_P2;PMS_P1;PMS_P2;Temp;Humidity;BMP_temperature;BMP_pressure;BME280_temperature;BME280_humidity;BME280_pressure;Samples;Min_cycle;Max_cycle;Signal;HPM_P1;HPM_P2
2024/03/02 00:01:41;;;;;;;4.67;4.37;;;7.80;99.90;;;;;;5032804;28;20722;-73
2024/03/02 00:04:08;;;;;;;4.73;4.37;;;7.80;99.90;;;;;;5032475;28;20202;-70
2024/03/02 00:06:34;;;;;;;4.93;4.57;;;7.80;99.90;;;;;;5032902;28;20163;-71
2024/03/02 00:08:59;;;;;;;4.70;4.40;;;7.80;99.90;;;;;;5032998;28;20208;-70
2024/03/02 00:11:25;;;;;;;4.87;4.30;;;7.70;99.90;;;;;;5033060;28;20182;-71
2024/03/02 00:13:53;;;;;;;5.07;4.57;;;7.70;99.90;;;;;;5032375;28;20282;-69
2024/03/02 00:16:19;;;;;;;4.80;4.37;;;7.70;99.90;;;;;;5033241;28;20635;-71
2024/03/02 00:18:45;;;;;;;5.10;4.67;;;7.70;99.90;;;;;;5032702;28;20651;-71
2024/03/02 00:21:13;;;;;;;4.63;4.33;;;7.70;99.90;;;;;;5015080;28;20206;-71
2024/03/02 00:23:39;;;;;;;5.30;4.80;;;7.70;99.90;;;;;;5032475;28;20213;-70
2024/03/02 00:26:05;;;;;;;4.97;4.53;;;7.70;99.90;;;;;;5032536;28;20250;-69
2024/03/02 00:28:35;;;;;;;5.53;5.03;;;7.70;99.90;;;;;;5032448;28;20250;-70
2024/03/02 00:31:12;;;;;;;5.00;4.60;;;7.80;99.90;;;;;;5032256;28;20179;-70
2024/03/02 00:33:44;;;;;;;5.17;4.77;;;7.80;99.90;;;;;;5032308;28;20191;-72
2024/03/02 00:36:15;;;;;;;4.60;4.30;;;7.90;99.90;;;;;;5031889;28;20306;-72
2024/03/02 00:38:52;;;;;;;4.30;4.00;;;8.00;99.90;;;;;;5032058;28;20249;-73
2024/03/02 00:41:35;;;;;;;4.40;4.10;;;8.00;99.90;;;;;;5032265;28;20179;-70
2024/03/02 00:44:15;;;;;;;4.13;3.83;;;8.10;99.90;;;;;;5032088;28;20560;-70
2024/03/02 00:46:43;;;;;;;5.13;4.57;;;8.10;99.90;;;;;;5032292;28;20190;-70
2024/03/02 00:49:14;;;;;;;5.07;4.70;;;8.20;99.90;;;;;;5032083;28;20251;-71
2024/03/02 00:51:41;;;;;;;5.33;4.83;;;8.20;99.90;;;;;;5031819;28;20661;-70
2024/03/02 00:54:09;;;;;;;5.13;4.63;;;8.20;99.90;;;;;;5031714;28;20546;-70
2024/03/02 00:56:35;;;;;;;5.23;4.80;;;8.20;99.90;;;;;;5031862;28;20187;-72
2024/03/02 00:59:01;;;;;;;5.07;4.67;;;8.20;99.90;;;;;;5014255;28;20179;-72
2024/03/02 01:01:27;;;;;;;4.50;4.17;;;8.20;99.90;;;;;;5032050;28;20176;-72
2024/03/02 01:03:52;;;;;;;4.70;4.40;;;8.10;99.90;;;;;;5031488;28;20274;-71
2024/03/02 01:06:18;;;;;;;6.20;5.07;;;8.10;99.90;;;;;;5031682;28;20635;-72
2024/03/02 01:08:45;;;;;;;5.13;4.73;;;8.10;99.90;;;;;;5031747;28;20178;-72
2024/03/02 01:11:11;;;;;;;5.23;4.83;;;8.00;99.90;;;;;;5032097;28;20178;-73
2024/03/02 01:13:36;;;;;;;5.17;4.80;;;7.90;99.90;;;;;;5031664;28;20183;-72
2024/03/02 01:16:02;;;;;;;4.83;4.53;;;7.90;99.90;;;;;;5031353;28;20191;-71
2024/03/02 01:18:28;;;;;;;4.30;4.00;;;7.80;99.90;;;;;;5031589;28;20227;-71
2024/03/02 01:20:55;;;;;;;4.23;3.83;;;7.80;99.90;;;;;;5031731;28;20282;-71
2024/03/02 01:23:25;;;;;;;4.47;4.03;;;7.80;99.90;;;;;;5031775;28;20278;-72
2024/03/02 01:25:51;;;;;;;7.10;4.33;;;7.80;99.90;;;;;;5031314;28;20176;-72
2024/03/02 01:28:19;;;;;;;4.40;4.20;;;7.80;99.90;;;;;;5031448;28;20172;-72
2024/03/02 01:30:44;;;;;;;4.83;4.27;;;7.90;99.90;;;;;;5031673;28;20288;-71
2024/03/02 01:33:10;;;;;;;4.37;4.07;;;7.90;99.90;;;;;;5031504;28;20237;-71
2024/03/02 01:35:37;;;;;;;4.50;4.20;;;8.00;99.90;;;;;;5031122;28;20175;-72
2024/03/02 01:38:03;;;;;;;4.57;4.27;;;8.10;99.90;;;;;;5031718;28;20261;-71
2024/03/02 01:40:29;;;;;;;5.83;5.33;;;8.10;99.90;;;;;;5031732;28;20192;-72
2024/03/02 01:42:55;;;;;;;5.90;5.50;;;8.10;99.90;;;;;;5031298;28;20198;-71
2024/03/02 01:45:21;;;;;;;5.20;4.90;;;8.20;99.90;;;;;;5031441;28;20208;-72
2024/03/02 01:47:47;;;;;;;5.07;4.67;;;8.10;99.90;;;;;;5031554;28;20611;-72
2024/03/02 01:50:13;;;;;;;5.27;4.87;;;8.20;99.90;;;;;;5031717;28;20223;-72
2024/03/02 01:52:40;;;;;;;4.40;4.10;;;8.20;99.90;;;;;;5031647;28;20172;-71
2024/03/02 01:55:07;;;;;;;4.80;4.50;;;8.20;99.90;;;;;;5031459;28;20187;-73
2024/03/02 01:57:33;;;;;;;6.43;4.63;;;8.30;99.90;;;;;;5031120;28;20190;-72
2024/03/02 02:00:00;;;;;;;5.03;4.73;;;8.30;99.90;;;;;;5031380;28;20571;-73
2024/03/02 02:02:26;;;;;;;5.30;4.90;;;8.30;99.90;;;;;;5031508;28;20167;-72
2024/03/02 02:04:51;;;;;;;6.00;5.60;;;8.20;99.90;;;;;;5030982;28;20195;-73
2024/03/02 02:07:17;;;;;;;5.77;5.37;;;8.20;99.90;;;;;;5031898;28;20168;-73
2024/03/02 02:09:42;;;;;;;5.53;5.23;;;8.20;99.90;;;;;;5031119;28;20186;-73
2024/03/02 02:12:09;;;;;;;6.10;5.70;;;8.10;99.90;;;;;;5031056;28;20279;-72
2024/03/02 02:14:36;;;;;;;5.17;4.70;;;8.10;99.90;;;;;;5030906;28;20286;-72
2024/03/02 02:17:01;;;;;;;4.77;4.47;;;8.00;99.90;;;;;;5031544;28;20254;-70
2024/03/02 02:19:27;;;;;;;4.80;4.50;;;8.00;99.90;;;;;;5031284;28;20760;-72
2024/03/02 02:21:52;;;;;;;5.13;4.73;;;8.10;99.90;;;;;;5030954;28;20191;-71
2024/03/02 02:24:18;;;;;;;5.17;4.80;;;8.10;99.90;;;;;;5030580;28;20183;-73
2024/03/02 02:26:44;;;;;;;5.00;4.70;;;8.10;99.90;;;;;;5031242;28;20254;-73
2024/03/02 02:29:09;;;;;;;4.67;4.37;;;8.20;99.90;;;;;;5031087;28;20655;-71
2024/03/02 02:31:42;;;;;;;4.83;4.43;;;8.20;99.90;;;;;;5030778;28;20191;-72
2024/03/02 02:34:09;;;;;;;8.40;5.17;;;8.20;99.90;;;;;;5031203;28;20733;-71
2024/03/02 02:36:39;;;;;;;5.87;5.30;;;8.30;99.90;;;;;;5031176;28;20226;-74
2024/03/02 02:39:10;;;;;;;4.87;4.23;;;8.30;99.90;;;;;;5033799;28;20171;-73
2024/03/02 02:41:36;;;;;;;5.13;4.70;;;8.30;99.90;;;;;;5034818;28;20176;-74
2024/03/02 02:44:01;;;;;;;4.60;4.20;;;8.30;99.90;;;;;;5034683;28;20294;-73
2024/03/02 02:46:27;;;;;;;4.20;3.90;;;8.30;99.90;;;;;;5034458;28;20172;-72
2024/03/02 02:48:53;;;;;;;4.70;4.33;;;8.30;99.90;;;;;;5034335;28;20198;-72
2024/03/02 02:51:19;;;;;;;4.33;3.83;;;8.30;99.90;;;;;;5034608;28;20216;-70
2024/03/02 02:53:44;;;;;;;5.07;4.43;;;8.30;99.90;;;;;;5034259;28;20214;-71
2024/03/02 02:56:10;;;;;;;4.87;4.53;;;8.20;99.90;;;;;;5016414;28;20646;-72
2024/03/02 02:58:36;;;;;;;5.43;4.90;;;8.20;99.90;;;;;;5033948;28;20262;-70
2024/03/02 03:01:02;;;;;;;4.93;4.53;;;8.10;99.90;;;;;;5034092;28;20206;-72
2024/03/02 03:03:27;;;;;;;5.17;4.70;;;8.10;99.90;;;;;;5034160;28;20198;-73
2024/03/02 03:05:53;;;;;;;5.90;5.30;;;8.10;99.90;;;;;;5034149;28;20171;-73
2024/03/02 03:08:19;;;;;;;5.43;5.03;;;8.10;99.90;;;;;;5034067;28;20179;-70
2024/03/02 03:10:44;;;;;;;4.97;4.67;;;8.20;99.90;;;;;;5034078;28;20253;-71
2024/03/02 03:13:10;;;;;;;4.73;4.40;;;8.20;99.90;;;;;;5034098;28;20276;-71
2024/03/02 03:15:36;;;;;;;4.70;4.40;;;8.20;99.90;;;;;;5033676;28;20674;-71
2024/03/02 03:18:03;;;;;;;5.10;4.70;;;8.20;99.90;;;;;;5033778;28;20179;-70
2024/03/02 03:20:29;;;;;;;4.70;4.40;;;8.20;99.90;;;;;;5033904;28;20283;-71
2024/03/02 03:22:56;;;;;;;6.07;5.57;;;8.20;99.90;;;;;;5034204;28;20673;-71
2024/03/02 03:25:21;;;;;;;5.13;4.80;;;8.20;99.90;;;;;;5034048;28;20250;-74
2024/03/02 03:27:47;;;;;;;4.80;4.50;;;8.20;99.90;;;;;;5034175;28;20202;-71
2024/03/02 03:30:12;;;;;;;4.80;4.50;;;8.20;99.90;;;;;;5033824;28;20241;-70
2024/03/02 03:32:38;;;;;;;5.03;4.70;;;8.20;99.90;;;;;;5034584;28;20615;-70
2024/03/02 03:35:05;;;;;;;4.67;4.37;;;8.20;99.90;;;;;;5033942;28;20242;-71
2024/03/02 03:37:32;;;;;;;5.27;4.93;;;8.20;99.90;;;;;;5034182;28;20182;-71
2024/03/02 03:39:59;;;;;;;6.33;4.90;;;8.10;99.90;;;;;;5034416;28;20199;-70
2024/03/02 03:42:24;;;;;;;4.80;4.40;;;8.10;99.90;;;;;;5033852;28;20182;-71
2024/03/02 03:44:50;;;;;;;4.23;4.03;;;8.10;99.90;;;;;;5033509;28;20191;-71
2024/03/02 03:47:16;;;;;;;5.50;5.10;;;8.10;99.90;;;;;;5034050;28;20191;-72
2024/03/02 03:49:41;;;;;;;5.10;4.70;;;8.00;99.90;;;;;;5033187;28;20685;-71
2024/03/02 03:52:07;;;;;;;5.90;4.57;;;8.00;99.90;;;;;;5033443;28;20171;-71
2024/03/02 03:54:32;;;;;;;5.03;4.60;;;7.90;99.90;;;;;;5032735;28;20195;-70
2024/03/02 03:56:58;;;;;;;5.03;4.60;;;7.80;99.90;;;;;;5033277;28;20214;-71
2024/03/02 03:59:24;;;;;;;4.23;4.03;;;7.80;99.90;;;;;;5033083;28;20199;-71
2024/03/02 04:01:49;;;;;;;5.30;4.80;;;7.70;99.90;;;;;;5033094;28;20643;-71
2024/03/02 04:04:15;;;;;;;5.47;5.07;;;7.60;99.90;;;;;;5032549;28;20298;-71
2024/03/02 04:06:40;;;;;;;5.27;4.97;;;7.60;99.90;;;;;;5033124;28;20172;-70
2024/03/02 04:09:07;;;;;;;5.23;4.73;;;7.50;99.90;;;;;;5033062;28;20294;-71
2024/03/02 04:11:32;;;;;;;5.20;4.80;;;7.40;99.90;;;;;;5033039;28;20163;-71
2024/03/02 04:13:58;;;;;;;5.20;4.77;;;7.40;1.00;;;;;;5032693;28;20566;-70
2024/03/02 04:16:24;;;;;;;4.70;4.40;;;7.30;1.00;;;;;;5032893;28;20709;-71
2024/03/02 04:18:49;;;;;;;7.37;4.80;;;7.20;1.00;;;;;;5032996;28;20176;-70
2024/03/02 04:21:15;;;;;;;5.83;4.50;;;7.10;1.00;;;;;;5032645;28;20217;-70
2024/03/02 04:23:40;;;;;;;4.60;4.20;;;7.00;1.00;;;;;;5032524;28;20195;-71
2024/03/02 04:26:06;;;;;;;4.73;4.43;;;7.00;1.00;;;;;;5032340;28;20175;-71
2024/03/02 04:28:32;;;;;;;4.60;4.20;;;6.90;1.00;;;;;;5032375;28;20191;-70
2024/03/02 04:30:58;;;;;;;4.60;4.20;;;6.90;1.00;;;;;;5032462;28;20538;-71
2024/03/02 04:33:23;;;;;;;4.90;4.50;;;6.80;99.90;;;;;;5032454;28;20192;-70
2024/03/02 04:35:49;;;;;;;5.27;4.87;;;6.90;42.90;;;;;;5032388;28;20178;-70
2024/03/02 04:38:15;;;;;;;4.90;4.47;;;6.80;1.00;;;;;;5033041;28;20245;-70
2024/03/02 04:40:40;;;;;;;4.80;4.40;;;6.80;1.00;;;;;;5032112;28;20573;-71
2024/03/02 04:43:08;;;;;;;4.40;4.10;;;6.80;1.00;;;;;;5032390;28;20234;-71
2024/03/02 04:45:33;;;;;;;4.57;4.23;;;6.70;1.00;;;;;;5031888;28;20179;-71
2024/03/02 04:47:59;;;;;;;4.93;4.53;;;6.60;1.00;;;;;;5032282;28;20164;-71
2024/03/02 04:50:25;;;;;;;5.20;4.73;;;6.50;1.00;;;;;;5031974;28;20179;-70
2024/03/02 04:52:50;;;;;;;4.60;4.20;;;6.50;1.00;;;;;;5031835;28;20206;-72
2024/03/02 04:57:41;;;;;;;5.00;4.60;;;6.40;1.00;;;;;;5032249;28;20543;-70
2024/03/02 05:00:08;;;;;;;4.93;4.53;;;6.40;1.00;;;;;;5031563;28;20384;-71
2024/03/02 05:02:34;;;;;;;4.40;4.10;;;6.40;1.00;;;;;;5031486;28;20254;-70
2024/03/02 05:05:00;;;;;;;5.63;4.77;;;6.40;1.00;;;;;;5031604;28;20750;-70
2024/03/02 05:07:26;;;;;;;5.50;5.00;;;6.40;1.00;;;;;;5032013;28;20163;-70
2024/03/02 05:09:51;;;;;;;4.47;4.17;;;6.40;1.00;;;;;;5031894;28;20175;-70
2024/03/02 05:14:43;;;;;;;5.57;4.63;;;6.40;1.00;;;;;;5031709;28;20205;-70
2024/03/02 05:17:08;;;;;;;4.40;4.10;;;6.50;1.00;;;;;;5031684;28;20183;-70
2024/03/02 05:19:34;;;;;;;4.90;4.50;;;6.40;1.00;;;;;;5031507;28;20205;-70
2024/03/02 05:21:59;;;;;;;4.97;4.57;;;6.40;1.00;;;;;;5031923;28;20205;-71
2024/03/02 05:24:27;;;;;;;4.70;4.40;;;6.40;1.00;;;;;;5031431;28;20191;-71
2024/03/02 05:26:53;;;;;;;4.23;4.00;;;6.40;1.00;;;;;;5031911;28;20191;-70
2024/03/02 05:29:19;;;;;;;4.60;4.30;;;6.40;1.00;;;;;;5031531;28;20654;-71
2024/03/02 05:31:44;;;;;;;5.97;4.40;;;6.40;1.00;;;;;;5031188;28;20245;-70
2024/03/02 05:34:10;;;;;;;4.77;4.23;;;6.40;1.00;;;;;;5031047;28;20213;-71
2024/03/02 05:36:36;;;;;;;6.23;4.60;;;6.40;1.00;;;;;;5031289;28;20176;-70
2024/03/02 05:39:04;;;;;;;5.17;4.27;;;6.40;1.00;;;;;;5031285;28;20647;-70
2024/03/02 05:41:30;;;;;;;4.93;4.50;;;6.40;1.00;;;;;;5031191;28;20181;-70
2024/03/02 05:43:55;;;;;;;4.73;4.43;;;6.40;1.00;;;;;;5031170;28;20274;-70
2024/03/02 05:46:22;;;;;;;4.47;4.17;;;6.40;1.00;;;;;;5031489;28;20585;-70
2024/03/02 05:48:47;;;;;;;5.47;5.10;;;6.40;1.00;;;;;;5031172;28;20172;-70
2024/03/02 05:51:13;;;;;;;4.40;4.07;;;6.40;1.00;;;;;;5031359;28;20198;-70
2024/03/02 05:53:38;;;;;;;4.90;4.50;;;6.40;1.00;;;;;;5031207;28;20207;-70
2024/03/02 05:56:05;;;;;;;4.53;4.13;;;6.40;1.00;;;;;;5030893;28;20207;-70
2024/03/02 05:58:47;;;;;;;4.47;4.10;;;6.40;1.00;;;;;;5030964;28;20176;-70
2024/03/02 06:01:13;;;;;;;4.63;4.27;;;6.40;1.00;;;;;;5031206;28;20578;-69
2024/03/02 06:03:39;;;;;;;4.60;4.20;;;6.40;1.00;;;;;;5031039;28;20195;-71
2024/03/02 06:06:05;;;;;;;4.53;4.23;;;6.40;1.00;;;;;;5031007;28;20266;-70
2024/03/02 06:08:31;;;;;;;4.70;4.30;;;6.40;1.00;;;;;;5030681;28;20262;-70
2024/03/02 06:10:57;;;;;;;6.97;4.13;;;6.50;1.00;;;;;;5031214;28;20313;-70
2024/03/02 06:13:23;;;;;;;4.27;3.97;;;6.50;1.00;;;;;;5034735;28;20278;-71
2024/03/02 06:15:48;;;;;;;4.63;4.33;;;6.60;1.00;;;;;;5035332;28;20179;-70
2024/03/02 06:18:14;;;;;;;6.23;4.17;;;6.70;1.00;;;;;;5035201;28;20635;-71
2024/03/02 06:20:39;;;;;;;4.40;4.07;;;6.80;1.00;;;;;;5035060;28;20213;-71
2024/03/02 06:23:05;;;;;;;4.53;4.10;;;6.80;1.00;;;;;;5034993;28;20257;-72
2024/03/02 06:25:31;;;;;;;4.57;4.20;;;6.90;1.00;;;;;;5034895;28;20746;-71
2024/03/02 06:27:56;;;;;;;4.53;4.13;;;6.90;1.00;;;;;;5034891;28;20179;-71
2024/03/02 06:30:22;;;;;;;4.53;4.23;;;6.90;1.00;;;;;;5034653;28;20179;-71
2024/03/02 06:32:47;;;;;;;5.13;4.23;;;6.90;1.00;;;;;;5035052;28;20665;-70
2024/03/02 06:35:13;;;;;;;4.77;4.30;;;6.90;1.00;;;;;;5035005;28;20229;-72
2024/03/02 06:37:42;;;;;;;4.37;4.07;;;6.90;1.00;;;;;;5034076;28;20651;-71
2024/03/02 06:40:08;;;;;;;5.03;4.63;;;6.90;1.00;;;;;;5034451;28;20214;-72
2024/03/02 06:42:35;;;;;;;4.77;4.23;;;6.90;1.00;;;;;;5034526;28;20175;-71
2024/03/02 06:45:01;;;;;;;4.60;4.20;;;6.90;1.00;;;;;;5034419;28;20178;-71
2024/03/02 06:47:26;;;;;;;4.90;4.40;;;6.90;1.00;;;;;;5034079;28;20199;-71
2024/03/02 06:49:53;;;;;;;4.67;4.27;;;7.00;1.00;;;;;;5034281;28;20211;-70
2024/03/02 06:52:18;;;;;;;4.47;4.07;;;7.00;1.00;;;;;;5034445;28;20266;-71
2024/03/02 06:54:44;;;;;;;8.57;4.07;;;7.10;99.90;;;;;;5033563;28;20223;-71
2024/03/02 06:57:10;;;;;;;4.83;4.30;;;7.20;99.90;;;;;;5034385;28;20263;-70
2024/03/02 06:59:35;;;;;;;4.50;4.10;;;7.30;99.90;;;;;;5033933;28;20686;-71
2024/03/02 07:02:01;;;;;;;4.37;4.07;;;7.40;99.90;;;;;;5034331;28;20182;-70
2024/03/02 07:04:27;;;;;;;4.63;4.23;;;7.60;99.90;;;;;;5033545;28;20268;-72
2024/03/02 07:06:52;;;;;;;5.43;4.37;;;7.70;99.90;;;;;;5034359;28;20183;-71
2024/03/02 07:09:22;;;;;;;4.50;4.10;;;7.80;99.90;;;;;;5032252;28;20642;-69
2024/03/02 07:11:48;;;;;;;5.03;3.80;;;7.90;99.90;;;;;;5033741;28;20184;-70
2024/03/02 07:14:13;;;;;;;4.10;3.80;;;8.00;99.90;;;;;;5033574;28;20196;-70
2024/03/02 07:16:40;;;;;;;4.23;3.93;;;8.10;99.90;;;;;;5033528;28;20179;-71
2024/03/02 07:19:06;;;;;;;4.03;3.70;;;8.20;99.90;;;;;;5033474;28;20257;-70
2024/03/02 07:21:33;;;;;;;4.10;3.80;;;8.30;99.90;;;;;;5033589;28;20680;-70
2024/03/02 07:23:59;;;;;;;4.07;3.60;;;8.40;99.90;;;;;;5032527;28;20187;-70
2024/03/02 07:26:25;;;;;;;3.80;3.53;;;8.60;99.90;;;;;;5033640;28;20164;-70
2024/03/02 07:28:51;;;;;;;4.33;4.03;;;8.80;99.90;;;;;;5033663;28;20182;-70
2024/03/02 07:31:17;;;;;;;7.10;4.07;;;9.00;99.90;;;;;;5015493;28;20271;-69
2024/03/02 07:33:48;;;;;;;4.20;3.90;;;9.30;99.90;;;;;;5032864;28;20628;-69
2024/03/02 07:36:14;;;;;;;4.17;3.77;;;9.50;99.90;;;;;;5033390;28;20190;-70
2024/03/02 07:38:40;;;;;;;3.70;3.40;;;9.60;99.90;;;;;;5033352;28;20168;-70
2024/03/02 07:41:08;;;;;;;3.80;3.50;;;9.80;99.90;;;;;;5033363;28;20199;-70
2024/03/02 07:43:33;;;;;;;3.63;3.33;;;9.90;99.90;;;;;;5033100;28;20270;-70
2024/03/02 07:45:59;;;;;;;3.70;3.40;;;10.20;99.90;;;;;;5033304;28;20670;-70
2024/03/02 07:48:25;;;;;;;3.60;3.30;;;10.50;99.90;;;;;;5032830;28;20579;-71
2024/03/02 07:50:51;;;;;;;4.13;3.10;;;10.80;99.90;;;;;;5032983;28;20254;-70
2024/03/02 07:53:16;;;;;;;3.90;3.60;;;11.20;99.90;;;;;;5033028;28;20267;-71
2024/03/02 07:55:42;;;;;;;3.53;3.23;;;11.40;99.90;;;;;;5038878;23;20232;-72
2024/03/02 07:58:08;;;;;;;4.13;3.80;;;11.40;99.90;;;;;;5013241;28;20168;-72
2024/03/02 08:00:35;;;;;;;3.77;3.17;;;11.40;99.90;;;;;;5012498;28;20240;-72
2024/03/02 08:03:01;;;;;;;4.30;3.23;;;11.30;99.90;;;;;;5013208;28;20219;-73
2024/03/02 08:05:27;;;;;;;6.20;3.20;;;11.40;99.90;;;;;;5012930;28;20200;-73
2024/03/02 08:07:53;;;;;;;3.43;3.20;;;11.50;99.90;;;;;;5013096;28;20240;-73
2024/03/02 08:10:19;;;;;;;5.27;3.33;;;11.70;99.90;;;;;;5012913;28;20183;-72
2024/03/02 08:12:45;;;;;;;3.10;2.90;;;11.90;99.90;;;;;;5012770;28;20180;-72
2024/03/02 08:15:12;;;;;;;3.47;3.13;;;12.30;99.90;;;;;;5012842;28;20195;-72
2024/03/02 08:17:40;;;;;;;3.30;3.00;;;12.60;99.90;;;;;;5012749;28;20681;-73
2024/03/02 08:20:07;;;;;;;3.30;2.77;;;13.00;99.90;;;;;;5013794;28;20286;-73
2024/03/02 08:22:33;;;;;;;2.83;2.57;;;13.40;99.90;;;;;;5014833;28;20238;-73
2024/03/02 08:24:59;;;;;;;3.00;2.80;;;13.70;99.90;;;;;;5014365;28;20676;-73
2024/03/02 08:27:24;;;;;;;3.17;2.53;;;13.80;99.90;;;;;;5015088;28;20168;-73
2024/03/02 08:29:50;;;;;;;2.90;2.50;;;13.50;99.90;;;;;;5014946;28;20318;-73
2024/03/02 08:32:17;;;;;;;3.03;2.83;;;13.00;99.90;;;;;;5014373;28;20168;-74
2024/03/02 08:34:42;;;;;;;3.10;2.90;;;12.50;99.90;;;;;;5013800;28;20224;-73
2024/03/02 08:37:08;;;;;;;2.77;2.57;;;12.00;99.90;;;;;;5013982;28;20530;-72
2024/03/02 08:39:34;;;;;;;2.70;2.50;;;11.70;99.90;;;;;;5011509;28;20200;-75
2024/03/02 08:41:59;;;;;;;3.60;2.70;;;11.50;99.90;;;;;;5013240;28;20183;-74
2024/03/02 08:44:25;;;;;;;3.63;2.60;;;11.40;99.90;;;;;;5012991;28;20195;-74
2024/03/02 08:46:50;;;;;;;3.63;2.67;;;11.40;99.90;;;;;;5013680;28;20218;-73
2024/03/02 08:49:16;;;;;;;3.10;2.70;;;11.60;99.90;;;;;;5013947;28;20172;-74
2024/03/02 08:51:41;;;;;;;3.07;2.40;;;12.00;99.90;;;;;;5012228;28;20195;-73
2024/03/02 08:54:07;;;;;;;2.50;2.30;;;12.60;99.90;;;;;;5012103;28;20923;-72
2024/03/02 08:56:33;;;;;;;2.63;2.43;;;13.00;99.90;;;;;;5011604;28;20208;-73
2024/03/02 08:58:58;;;;;;;2.30;2.20;;;13.50;99.90;;;;;;5012107;28;20580;-72
2024/03/02 09:01:24;;;;;;;2.73;2.30;;;14.00;99.90;;;;;;5012089;28;20372;-72
2024/03/02 09:03:50;;;;;;;2.43;2.10;;;14.50;99.90;;;;;;5011965;28;20179;-73
2024/03/02 09:06:20;;;;;;;2.30;2.10;;;14.80;99.90;;;;;;5012163;28;20273;-73
2024/03/02 09:08:45;;;;;;;2.40;2.30;;;14.70;99.90;;;;;;5011960;28;20172;-73
2024/03/02 09:11:11;;;;;;;2.40;2.20;;;14.70;99.90;;;;;;5012589;28;20199;-73
2024/03/02 09:13:38;;;;;;;3.93;2.70;;;14.80;99.90;;;;;;5013319;28;20550;-74
2024/03/02 09:16:04;;;;;;;4.70;2.67;;;14.80;99.90;;;;;;5012986;28;20634;-72
2024/03/02 09:18:30;;;;;;;6.30;2.30;;;14.80;99.90;;;;;;5012857;28;20203;-72
2024/03/02 09:20:56;;;;;;;2.27;2.07;;;14.80;99.90;;;;;;5012191;28;20247;-72
2024/03/02 09:23:22;;;;;;;2.20;2.00;;;14.80;99.90;;;;;;5012336;28;20578;-72
2024/03/02 09:25:47;;;;;;;2.60;2.10;;;15.00;99.90;;;;;;5011914;28;20675;-73
2024/03/02 09:28:15;;;;;;;4.40;2.17;;;15.10;99.90;;;;;;5011522;28;20184;-73
2024/03/02 09:30:40;;;;;;;3.93;2.00;;;15.20;99.90;;;;;;5011549;28;20528;-73
2024/03/02 09:33:06;;;;;;;2.10;2.00;;;15.10;99.90;;;;;;5012018;28;20207;-72
2024/03/02 09:35:32;;;;;;;2.20;2.00;;;14.90;99.90;;;;;;5011312;28;20590;-73
2024/03/02 09:37:57;;;;;;;2.23;2.03;;;14.90;99.90;;;;;;5011958;28;20176;-72
2024/03/02 09:40:23;;;;;;;2.40;2.20;;;15.10;99.90;;;;;;5011466;28;20655;-72
2024/03/02 09:42:52;;;;;;;2.30;2.00;;;15.10;99.90;;;;;;5010734;28;20278;-72
2024/03/02 09:45:23;;;;;;;2.30;1.90;;;15.20;99.90;;;;;;5011509;28;20192;-72
2024/03/02 09:47:49;;;;;;;4.40;2.27;;;15.00;99.90;;;;;;5011102;28;20226;-71
2024/03/02 09:50:14;;;;;;;3.93;2.33;;;15.10;99.90;;;;;;5011805;28;20188;-72
2024/03/02 09:52:42;;;;;;;2.40;2.20;;;15.30;99.90;;;;;;5011172;28;20216;-72
2024/03/02 09:55:08;;;;;;;1.87;1.77;;;15.60;99.90;;;;;;5011553;28;20295;-72
2024/03/02 09:57:34;;;;;;;3.53;2.30;;;15.90;99.90;;;;;;5012022;28;20246;-73
2024/03/02 10:00:00;;;;;;;2.30;2.10;;;15.70;99.90;;;;;;4995755;28;20203;-73
2024/03/02 10:02:25;;;;;;;3.73;2.27;;;15.60;99.90;;;;;;5012851;28;20299;-73
2024/03/02 10:04:51;;;;;;;4.10;2.37;;;15.50;99.90;;;;;;5012812;28;20180;-73
2024/03/02 10:07:18;;;;;;;4.23;2.27;;;15.50;99.90;;;;;;5014572;28;20172;-72
2024/03/02 10:09:48;;;;;;;3.93;2.67;;;15.60;99.90;;;;;;5013037;28;20549;-73
2024/03/02 10:12:15;;;;;;;4.07;3.03;;;15.60;99.90;;;;;;5012538;28;20181;-72
2024/03/02 10:14:42;;;;;;;2.30;2.10;;;15.60;99.90;;;;;;5011054;28;20207;-73
2024/03/02 10:17:09;;;;;;;2.83;2.40;;;15.50;99.90;;;;;;5011478;28;20254;-73
2024/03/02 10:19:36;;;;;;;6.23;2.60;;;15.60;99.90;;;;;;5011499;28;20211;-73
2024/03/02 10:22:09;;;;;;;2.63;2.00;;;15.50;99.90;;;;;;5011700;28;20226;-72
2024/03/02 10:24:37;;;;;;;2.13;1.90;;;15.60;99.90;;;;;;5011230;28;20234;-72
2024/03/02 10:27:10;;;;;;;2.20;2.00;;;15.70;99.90;;;;;;5013286;28;20192;-72
2024/03/02 10:29:40;;;;;;;2.97;2.10;;;15.80;99.90;;;;;;4995898;28;20184;-72
2024/03/02 10:32:10;;;;;;;2.20;2.07;;;15.80;99.90;;;;;;5012762;28;20176;-72
2024/03/02 10:34:36;;;;;;;3.87;2.00;;;15.70;99.90;;;;;;5011237;28;20184;-73
2024/03/02 10:37:03;;;;;;;5.67;2.40;;;15.50;99.90;;;;;;5011805;28;20227;-72
2024/03/02 10:39:29;;;;;;;3.10;2.10;;;15.60;99.90;;;;;;5011125;28;20254;-72
2024/03/02 10:41:56;;;;;;;3.83;2.23;;;15.70;99.90;;;;;;5011201;28;20167;-72
2024/03/02 10:44:23;;;;;;;3.40;2.10;;;15.50;99.90;;;;;;5011085;28;20249;-72
2024/03/02 10:46:52;;;;;;;2.20;2.00;;;15.50;99.90;;;;;;5010961;28;20238;-71
2024/03/02 10:49:20;;;;;;;4.47;2.30;;;15.60;99.90;;;;;;5011879;28;20320;-73
2024/03/02 10:51:46;;;;;;;3.57;2.17;;;15.40;99.90;;;;;;5012933;28;20219;-74
2024/03/02 10:54:12;;;;;;;5.73;2.10;;;15.50;99.90;;;;;;5013035;28;20179;-74
2024/03/02 10:56:44;;;;;;;2.37;2.00;;;15.40;99.90;;;;;;5010900;28;20208;-73
2024/03/02 10:59:21;;;;;;;2.60;2.33;;;15.40;99.90;;;;;;5012803;28;20171;-72
2024/03/02 11:01:53;;;;;;;2.57;2.13;;;15.50;99.90;;;;;;5014795;28;20175;-73
2024/03/02 11:04:22;;;;;;;2.30;2.10;;;15.50;99.90;;;;;;5014231;28;20386;-72
2024/03/02 11:06:51;;;;;;;4.40;2.30;;;15.50;99.90;;;;;;5014336;28;20223;-74
2024/03/02 11:09:27;;;;;;;2.40;2.20;;;15.30;99.90;;;;;;5014476;28;20259;-72
2024/03/02 11:12:19;;;;;;;4.53;2.50;;;15.20;99.90;;;;;;5014264;28;20251;-71
2024/03/02 11:14:44;;;;;;;3.13;2.33;;;15.20;99.90;;;;;;5007304;28;20259;-73
2024/03/02 11:17:12;;;;;;;2.17;2.07;;;15.30;99.90;;;;;;5015476;28;20176;-73
2024/03/02 11:19:40;;;;;;;5.37;2.40;;;15.30;99.90;;;;;;5015696;28;20220;-73
2024/03/02 11:22:06;;;;;;;2.43;2.23;;;15.40;99.90;;;;;;5015458;28;20251;-73
2024/03/02 11:24:33;;;;;;;3.13;2.10;;;15.40;99.90;;;;;;4995523;28;20658;-72
2024/03/02 11:27:05;;;;;;;2.10;1.97;;;15.40;99.90;;;;;;5014140;28;20250;-71
2024/03/02 11:29:40;;;;;;;2.67;2.40;;;15.50;99.90;;;;;;5014601;28;20172;-72
2024/03/02 11:32:23;;;;;;;5.60;2.50;;;15.60;99.90;;;;;;5014155;28;20175;-72
2024/03/02 11:34:50;;;;;;;2.53;2.20;;;15.90;99.90;;;;;;4997649;28;20184;-72
2024/03/02 11:37:17;;;;;;;2.27;2.10;;;16.10;99.90;;;;;;5014203;28;20258;-73
2024/03/02 11:39:45;;;;;;;2.30;2.10;;;16.30;99.90;;;;;;5013874;28;20196;-73
2024/03/02 11:42:13;;;;;;;2.30;2.20;;;16.40;99.90;;;;;;5014476;28;20608;-72
2024/03/02 11:44:40;;;;;;;2.30;2.20;;;16.30;99.90;;;;;;5013230;28;20212;-74
2024/03/02 11:47:08;;;;;;;2.77;2.17;;;16.40;99.90;;;;;;5016285;28;20196;-74
2024/03/02 11:49:44;;;;;;;2.17;2.07;;;16.50;99.90;;;;;;5015958;28;20180;-74
2024/03/02 11:52:11;;;;;;;3.57;2.00;;;16.60;99.90;;;;;;5016178;28;20188;-71
2024/03/02 11:54:46;;;;;;;2.43;2.20;;;16.50;99.90;;;;;;5014519;28;20666;-72
2024/03/02 11:57:12;;;;;;;2.27;1.90;;;16.50;99.90;;;;;;5013421;28;20191;-72
2024/03/02 11:59:38;;;;;;;2.57;2.33;;;16.50;99.90;;;;;;5013168;28;20684;-71
2024/03/02 12:02:03;;;;;;;2.20;2.10;;;16.40;99.90;;;;;;5013258;28;20242;-72
2024/03/02 12:04:30;;;;;;;2.87;2.17;;;16.10;99.90;;;;;;5013244;28;20541;-71
2024/03/02 12:07:00;;;;;;;2.97;2.40;;;15.70;99.90;;;;;;5013189;28;20188;-71
2024/03/02 12:09:29;;;;;;;2.20;2.10;;;15.60;99.90;;;;;;5012896;28;20693;-70
2024/03/02 12:12:05;;;;;;;4.00;3.00;;;15.60;99.90;;;;;;5013005;28;20172;-71
2024/03/02 12:14:32;;;;;;;3.63;2.50;;;15.50;99.90;;;;;;5012850;28;20199;-72
2024/03/02 12:17:01;;;;;;;3.23;2.73;;;15.40;99.90;;;;;;5012594;28;20242;-72
2024/03/02 12:19:29;;;;;;;3.10;2.60;;;15.30;99.90;;;;;;5013137;28;20598;-73
2024/03/02 12:21:59;;;;;;;2.40;2.30;;;15.30;99.90;;;;;;5013516;28;20192;-72
2024/03/02 12:24:28;;;;;;;2.80;2.60;;;15.50;99.90;;;;;;5013119;28;20168;-73
2024/03/02 12:26:54;;;;;;;2.30;2.20;;;15.60;99.90;;;;;;5012876;28;20207;-72
2024/03/02 12:29:21;;;;;;;2.63;2.43;;;15.70;99.90;;;;;;5015805;28;20195;-74
2024/03/02 12:31:52;;;;;;;3.17;2.70;;;15.80;99.90;;;;;;5016024;28;20208;-71
2024/03/02 12:34:18;;;;;;;2.93;2.63;;;15.80;99.90;;;;;;5012668;28;20238;-72
2024/03/02 12:36:49;;;;;;;3.63;2.73;;;15.80;99.90;;;;;;5012304;28;20279;-73
2024/03/02 12:39:18;;;;;;;2.67;2.40;;;15.80;99.90;;;;;;5012611;28;20222;-72
2024/03/02 12:41:43;;;;;;;2.70;2.50;;;15.80;99.90;;;;;;5012827;28;20188;-73
2024/03/02 12:44:10;;;;;;;2.77;2.57;;;15.70;99.90;;;;;;5011994;28;20177;-72
2024/03/02 12:46:38;;;;;;;2.90;2.60;;;15.60;99.90;;;;;;5011398;28;20200;-73
2024/03/02 12:49:11;;;;;;;3.00;2.87;;;15.50;99.90;;;;;;5012440;28;20172;-73
2024/03/02 12:51:40;;;;;;;3.60;2.50;;;15.50;99.90;;;;;;5012501;28;20168;-73
2024/03/02 12:54:07;;;;;;;3.63;2.47;;;15.40;99.90;;;;;;5012148;28;20226;-73
2024/03/02 12:56:32;;;;;;;2.50;2.40;;;15.30;99.90;;;;;;5012181;28;20212;-73
2024/03/02 12:58:59;;;;;;;2.53;2.37;;;15.40;99.90;;;;;;5011943;28;20179;-73